createdAt,value
2023-08-19T00:00:49.699Z,20.32
2023-08-19T00:03:20.333Z,20.30
2023-08-19T00:05:50.980Z,20.29
2023-08-19T00:08:21.674Z,20.32
2023-08-19T00:10:52.361Z,20.33
2023-08-19T00:13:23.024Z,20.33
2023-08-19T00:15:53.677Z,20.34
2023-08-19T00:18:24.679Z,20.24
2023-08-19T00:20:56.553Z,20.10
2023-08-19T00:23:29.365Z,20.06
2023-08-19T00:26:01.066Z,20.11
2023-08-19T00:28:31.642Z,20.14
2023-08-19T00:31:02.295Z,20.13
2023-08-19T00:33:33.004Z,20.14
2023-08-19T00:36:04.986Z,20.13
2023-08-19T00:38:35.507Z,20.14
2023-08-19T00:41:06.085Z,20.16
2023-08-19T00:43:37.660Z,20.17
2023-08-19T00:46:10.382Z,20.16
2023-08-19T00:48:41.519Z,20.14
2023-08-19T00:51:12.154Z,20.15
2023-08-19T00:53:43.031Z,20.19
2023-08-19T00:56:16.018Z,20.20
2023-08-19T00:58:46.803Z,20.18
2023-08-19T01:01:19.422Z,20.10
2023-08-19T01:03:50.130Z,20.09
2023-08-19T01:06:28.247Z,20.08
2023-08-19T01:09:23.671Z,20.09
2023-08-19T01:12:08.820Z,20.11
2023-08-19T01:14:48.710Z,20.13
2023-08-19T01:17:24.509Z,20.14
2023-08-19T01:19:56.183Z,20.15
2023-08-19T01:22:36.325Z,20.13
2023-08-19T01:25:08.740Z,20.11
2023-08-19T01:27:39.453Z,20.11
2023-08-19T01:30:11.872Z,20.07
2023-08-19T01:32:42.965Z,19.97
2023-08-19T01:35:15.021Z,19.96
2023-08-19T01:37:55.968Z,19.99
2023-08-19T01:40:27.646Z,19.99
2023-08-19T01:43:00.122Z,19.96
2023-08-19T01:45:31.465Z,19.91
2023-08-19T01:48:03.816Z,19.86
2023-08-19T01:50:34.554Z,19.86
2023-08-19T01:53:05.433Z,19.87
2023-08-19T01:55:36.045Z,19.87
2023-08-19T01:58:06.847Z,19.88
2023-08-19T02:00:37.437Z,19.89
2023-08-19T02:03:08.544Z,19.89
2023-08-19T02:05:39.209Z,19.89
2023-08-19T02:08:10.137Z,19.87
2023-08-19T02:10:42.138Z,19.80
2023-08-19T02:13:12.702Z,19.73
2023-08-19T02:15:44.132Z,19.71
2023-08-19T02:18:14.723Z,19.68
2023-08-19T02:20:49.626Z,19.72
2023-08-19T02:23:20.173Z,19.74
2023-08-19T02:25:53.252Z,19.71
2023-08-19T02:28:23.846Z,19.68
2023-08-19T02:30:55.668Z,19.68
2023-08-19T02:33:26.183Z,19.63
2023-08-19T02:35:56.750Z,19.60
2023-08-19T02:38:27.307Z,19.58
2023-08-19T02:40:57.832Z,19.57
2023-08-19T02:43:28.418Z,19.57
2023-08-19T02:45:59.142Z,19.54
2023-08-19T02:48:29.768Z,19.43
2023-08-19T02:51:00.539Z,19.33
2023-08-19T02:53:31.226Z,19.27
2023-08-19T02:56:01.973Z,19.24
2023-08-19T02:58:32.562Z,19.27
2023-08-19T03:01:03.141Z,19.33
2023-08-19T03:03:33.700Z,19.32
2023-08-19T03:06:04.628Z,19.31
2023-08-19T03:08:35.331Z,19.32
2023-08-19T03:11:05.977Z,19.33
2023-08-19T03:13:36.741Z,19.32
2023-08-19T03:16:08.239Z,19.30
2023-08-19T03:18:38.812Z,19.29
2023-08-19T03:21:09.384Z,19.24
2023-08-19T03:23:39.921Z,19.21
2023-08-19T03:26:10.477Z,19.23
2023-08-19T03:28:41.073Z,19.23
2023-08-19T03:31:12.180Z,19.20
2023-08-19T03:33:45.038Z,19.19
2023-08-19T03:36:16.081Z,19.16
2023-08-19T03:38:46.750Z,19.13
2023-08-19T03:41:17.318Z,19.09
2023-08-19T03:43:47.850Z,19.07
2023-08-19T03:46:18.627Z,19.05
2023-08-19T03:48:49.240Z,19.06
2023-08-19T03:51:19.750Z,19.07
2023-08-19T03:53:50.646Z,19.06
2023-08-19T03:56:21.303Z,19.01
2023-08-19T03:58:51.943Z,18.98
2023-08-19T04:01:22.498Z,18.96
2023-08-19T04:03:53.223Z,18.92
2023-08-19T04:06:23.784Z,18.90
2023-08-19T04:08:54.411Z,18.88
2023-08-19T04:11:25.229Z,18.89
2023-08-19T04:13:55.784Z,18.85
2023-08-19T04:16:26.487Z,18.82
2023-08-19T04:18:57.055Z,18.81
2023-08-19T04:21:28.172Z,18.83
2023-08-19T04:23:58.835Z,18.85
2023-08-19T04:26:30.371Z,18.86
2023-08-19T04:28:59.465Z,18.87
2023-08-19T04:31:32.774Z,18.89
2023-08-19T04:34:06.841Z,18.80
2023-08-19T04:36:37.906Z,18.84
2023-08-19T04:39:09.798Z,18.82
2023-08-19T04:41:40.579Z,18.84
2023-08-19T04:44:11.480Z,18.88
2023-08-19T04:46:42.053Z,18.90
2023-08-19T04:49:12.758Z,18.93
2023-08-19T04:51:43.336Z,18.95
2023-08-19T04:54:13.893Z,18.95
2023-08-19T04:56:44.502Z,18.96
2023-08-19T04:59:16.067Z,18.95
2023-08-19T05:01:45.411Z,18.93
2023-08-19T05:04:16.477Z,18.87
2023-08-19T05:06:47.611Z,18.79
2023-08-19T05:09:18.822Z,18.85
2023-08-19T05:11:49.418Z,18.90
2023-08-19T05:14:20.759Z,18.93
2023-08-19T05:16:51.268Z,18.94
2023-08-19T05:19:24.140Z,18.95
2023-08-19T05:21:55.116Z,18.93
2023-08-19T05:24:25.666Z,18.95
2023-08-19T05:26:56.948Z,18.90
2023-08-19T05:29:27.559Z,18.85
2023-08-19T05:31:59.132Z,18.85
2023-08-19T05:34:28.541Z,18.84
2023-08-19T05:36:59.046Z,18.87
2023-08-19T05:39:29.565Z,18.88
2023-08-19T05:42:00.146Z,18.85
2023-08-19T05:44:30.658Z,18.86
2023-08-19T05:47:01.245Z,18.89
2023-08-19T05:49:31.811Z,18.93
2023-08-19T05:52:02.357Z,18.95
2023-08-19T05:54:32.864Z,18.98
2023-08-19T05:57:03.458Z,19.03
2023-08-19T05:59:34.169Z,19.10
2023-08-19T06:02:04.790Z,19.19
2023-08-19T06:04:35.328Z,19.22
2023-08-19T06:07:05.929Z,19.25
2023-08-19T06:09:36.485Z,19.27
2023-08-19T06:12:08.147Z,19.30
2023-08-19T06:14:38.672Z,19.38
2023-08-19T06:17:09.179Z,19.43
2023-08-19T06:19:39.747Z,19.44
2023-08-19T06:22:10.226Z,19.46
2023-08-19T06:24:40.794Z,19.53
2023-08-19T06:27:11.288Z,19.60
2023-08-19T06:29:41.987Z,19.67
2023-08-19T06:32:14.837Z,19.74
2023-08-19T06:34:46.350Z,19.78
2023-08-19T06:37:20.037Z,19.83
2023-08-19T06:39:55.247Z,19.87
2023-08-19T06:42:27.033Z,19.93
2023-08-19T06:45:01.816Z,19.98
2023-08-19T06:47:35.263Z,20.03
2023-08-19T06:50:07.703Z,20.07
2023-08-19T06:52:39.499Z,20.12
2023-08-19T06:55:13.238Z,20.16
2023-08-19T06:57:52.389Z,20.20
2023-08-19T07:00:25.159Z,20.25
2023-08-19T07:02:57.824Z,20.30
2023-08-19T07:05:32.053Z,20.36
2023-08-19T07:08:10.655Z,20.40
2023-08-19T07:10:42.231Z,20.45
2023-08-19T07:13:13.790Z,20.53
2023-08-19T07:15:51.036Z,20.62
2023-08-19T07:18:24.571Z,20.68
2023-08-19T07:20:57.641Z,20.73
2023-08-19T07:23:30.049Z,20.80
2023-08-19T07:26:01.682Z,20.88
2023-08-19T07:28:33.722Z,20.98
2023-08-19T07:31:06.606Z,21.10
2023-08-19T07:33:37.893Z,21.15
2023-08-19T07:36:08.913Z,21.16
2023-08-19T07:38:39.527Z,21.19
2023-08-19T07:41:10.125Z,21.22
2023-08-19T07:43:40.826Z,21.32
2023-08-19T07:46:11.413Z,21.48
2023-08-19T07:48:42.016Z,21.63
2023-08-19T07:51:12.861Z,21.79
2023-08-19T07:53:43.568Z,21.86
2023-08-19T07:56:15.514Z,21.93
2023-08-19T07:58:46.665Z,21.98
2023-08-19T08:01:17.451Z,22.08
2023-08-19T08:03:48.308Z,22.18
2023-08-19T08:06:18.947Z,22.26
2023-08-19T08:08:50.167Z,22.34
2023-08-19T08:11:20.804Z,22.42
2023-08-19T08:13:51.377Z,22.54
2023-08-19T08:16:22.226Z,22.68
2023-08-19T08:18:53.024Z,22.82
2023-08-19T08:21:23.562Z,22.94
2023-08-19T08:23:55.692Z,23.03
2023-08-19T08:26:26.362Z,23.13
2023-08-19T08:28:57.199Z,23.21
2023-08-19T08:31:27.828Z,23.30
2023-08-19T08:33:58.434Z,23.40
2023-08-19T08:36:29.061Z,23.47
2023-08-19T08:38:59.646Z,23.61
2023-08-19T08:41:32.344Z,23.72
2023-08-19T08:44:03.894Z,23.80
2023-08-19T08:46:35.727Z,23.91
2023-08-19T08:49:08.057Z,24.01
2023-08-19T08:51:39.323Z,24.10
2023-08-19T08:54:10.774Z,24.21
2023-08-19T08:56:41.392Z,24.31
2023-08-19T08:59:12.283Z,24.41
2023-08-19T09:01:45.980Z,24.49
2023-08-19T09:04:17.885Z,24.59
2023-08-19T09:06:53.054Z,24.67
2023-08-19T09:09:27.181Z,24.76
2023-08-19T09:12:00.078Z,24.81
2023-08-19T09:14:38.448Z,24.87
2023-08-19T09:17:09.216Z,24.89
2023-08-19T09:19:39.867Z,24.99
2023-08-19T09:22:21.248Z,25.06
2023-08-19T09:24:54.366Z,25.10
2023-08-19T09:27:30.398Z,25.13
2023-08-19T09:30:01.499Z,25.15
2023-08-19T09:32:33.851Z,25.23
2023-08-19T09:35:06.915Z,25.33
2023-08-19T09:37:38.689Z,25.44
2023-08-19T09:40:12.729Z,25.56
2023-08-19T09:42:50.450Z,25.64
2023-08-19T09:45:20.735Z,25.66
2023-08-19T09:47:53.379Z,25.69
2023-08-19T09:50:25.835Z,25.74
2023-08-19T09:53:02.455Z,25.91
2023-08-19T09:55:34.877Z,26.01
2023-08-19T09:58:05.635Z,26.07
2023-08-19T10:00:36.164Z,26.06
2023-08-19T10:03:08.403Z,26.09
2023-08-19T10:05:42.487Z,26.10
2023-08-19T10:08:15.672Z,26.11
2023-08-19T10:10:49.172Z,26.10
2023-08-19T10:13:23.294Z,26.11
2023-08-19T10:15:54.613Z,26.12
2023-08-19T10:18:29.448Z,26.16
2023-08-19T10:21:02.769Z,26.16
2023-08-19T10:23:35.862Z,26.16
2023-08-19T10:26:06.997Z,26.16
2023-08-19T10:28:37.897Z,26.22
2023-08-19T10:31:10.572Z,26.25
2023-08-19T10:33:47.420Z,26.24
2023-08-19T10:36:20.672Z,26.29
2023-08-19T10:38:56.739Z,26.32
2023-08-19T10:41:34.013Z,26.35
2023-08-19T10:44:06.123Z,26.40
2023-08-19T10:46:38.902Z,26.40
2023-08-19T10:49:10.475Z,26.42
2023-08-19T10:51:55.601Z,26.43
2023-08-19T10:54:32.657Z,26.41
2023-08-19T10:57:14.875Z,26.36
2023-08-19T10:59:47.880Z,26.32
2023-08-19T11:02:19.463Z,26.26
2023-08-19T11:04:51.573Z,26.21
2023-08-19T11:07:23.861Z,26.18
2023-08-19T11:09:56.352Z,26.11
2023-08-19T11:12:28.405Z,26.08
2023-08-19T11:15:01.234Z,26.07
2023-08-19T11:17:33.511Z,26.02
2023-08-19T11:20:11.305Z,26.00
2023-08-19T11:22:47.345Z,25.97
2023-08-19T11:25:19.136Z,25.97
2023-08-19T11:27:52.695Z,25.97
2023-08-19T11:30:26.373Z,25.98
2023-08-19T11:32:57.848Z,26.02
2023-08-19T11:35:42.604Z,26.09
2023-08-19T11:38:17.581Z,26.11
2023-08-19T11:40:52.918Z,26.11
2023-08-19T11:43:26.728Z,26.10
2023-08-19T11:45:57.548Z,26.11
2023-08-19T11:48:29.417Z,26.13
2023-08-19T11:51:00.243Z,26.08
2023-08-19T11:53:32.232Z,26.06
2023-08-19T11:56:04.523Z,26.04
2023-08-19T11:58:54.675Z,26.03
2023-08-19T12:01:26.780Z,26.04
2023-08-19T12:03:57.405Z,26.06
2023-08-19T12:06:34.642Z,26.05
2023-08-19T12:09:05.953Z,26.02
2023-08-19T12:11:35.601Z,26.00
2023-08-19T12:14:07.039Z,25.96
2023-08-19T12:16:37.716Z,25.93
2023-08-19T12:19:08.646Z,25.90
2023-08-19T12:21:39.188Z,25.95
2023-08-19T12:24:11.134Z,25.94
2023-08-19T12:26:41.693Z,25.92
2023-08-19T12:29:12.242Z,25.90
2023-08-19T12:31:42.841Z,25.87
2023-08-19T12:34:13.965Z,25.86
2023-08-19T12:36:44.492Z,25.87
2023-08-19T12:39:15.102Z,25.90
2023-08-19T12:41:47.283Z,25.90
2023-08-19T12:44:17.819Z,25.92
2023-08-19T12:46:50.752Z,25.91
2023-08-19T12:49:21.278Z,25.93
2023-08-19T12:51:51.834Z,25.95
2023-08-19T12:54:22.352Z,25.97
2023-08-19T12:56:53.012Z,26.00
2023-08-19T12:59:23.561Z,26.01
2023-08-19T13:01:54.136Z,26.02
2023-08-19T13:04:24.736Z,26.04
2023-08-19T13:06:55.334Z,26.07
2023-08-19T13:09:26.176Z,26.08
2023-08-19T13:11:56.727Z,26.12
2023-08-19T13:14:27.325Z,26.14
2023-08-19T13:16:58.060Z,26.12
2023-08-19T13:19:28.671Z,26.11
2023-08-19T13:21:59.272Z,26.10
2023-08-19T13:24:29.818Z,26.06
2023-08-19T13:27:00.329Z,26.07
2023-08-19T13:29:30.836Z,26.08
2023-08-19T13:32:01.462Z,26.13
2023-08-19T13:34:32.012Z,26.15
2023-08-19T13:37:02.680Z,26.17
2023-08-19T13:39:33.698Z,26.22
2023-08-19T13:42:04.482Z,26.25
2023-08-19T13:44:35.029Z,26.27
2023-08-19T13:47:06.080Z,26.31
2023-08-19T13:49:36.658Z,26.38
2023-08-19T13:52:08.240Z,26.42
2023-08-19T13:54:39.011Z,26.45
2023-08-19T13:57:08.523Z,26.51
2023-08-19T13:59:39.061Z,26.57
2023-08-19T14:02:09.711Z,26.57
2023-08-19T14:04:40.448Z,26.58
2023-08-19T14:07:11.005Z,26.56
2023-08-19T14:09:41.561Z,26.53
2023-08-19T14:12:12.370Z,26.49
2023-08-19T14:14:43.192Z,26.47
2023-08-19T14:17:15.320Z,26.44
2023-08-19T14:19:46.027Z,26.39
2023-08-19T14:22:16.666Z,26.36
2023-08-19T14:24:47.185Z,26.32
2023-08-19T14:27:20.268Z,26.28
2023-08-19T14:29:50.786Z,26.31
2023-08-19T14:32:21.399Z,26.31
2023-08-19T14:34:52.173Z,26.32
2023-08-19T14:37:22.853Z,26.32
2023-08-19T14:39:53.372Z,26.30
2023-08-19T14:42:24.426Z,26.28
2023-08-19T14:44:55.305Z,26.26
2023-08-19T14:47:25.863Z,26.25
2023-08-19T14:49:56.519Z,26.27
2023-08-19T14:52:27.109Z,26.29
2023-08-19T14:54:57.631Z,26.31
2023-08-19T14:57:30.497Z,26.29
2023-08-19T15:00:01.231Z,26.31
2023-08-19T15:02:48.290Z,26.31
2023-08-19T15:05:19.726Z,26.32
2023-08-19T15:07:50.364Z,26.32
2023-08-19T15:10:21.062Z,26.36
2023-08-19T15:12:51.667Z,26.35
2023-08-19T15:15:24.965Z,26.32
2023-08-19T15:17:57.059Z,26.34
2023-08-19T15:20:27.622Z,26.32
2023-08-19T15:22:58.497Z,26.31
2023-08-19T15:25:29.314Z,26.26
2023-08-19T15:27:59.893Z,26.22
2023-08-19T15:30:30.518Z,26.18
2023-08-19T15:33:01.520Z,26.16
2023-08-19T15:35:32.162Z,26.15
2023-08-19T15:38:04.274Z,26.13
2023-08-19T15:40:34.840Z,26.11
2023-08-19T15:43:06.532Z,26.09
2023-08-19T15:45:37.316Z,26.07
2023-08-19T15:48:08.721Z,26.05
2023-08-19T15:50:39.274Z,26.04
2023-08-19T15:53:09.802Z,26.04
2023-08-19T15:55:41.221Z,26.05
2023-08-19T15:58:11.756Z,26.05
2023-08-19T16:00:42.345Z,26.10
2023-08-19T16:03:13.022Z,26.08
2023-08-19T16:05:43.645Z,26.05
2023-08-19T16:08:14.697Z,26.03
2023-08-19T16:10:45.460Z,25.96
2023-08-19T16:13:16.276Z,25.88
2023-08-19T16:15:49.307Z,25.84
2023-08-19T16:18:21.352Z,25.85
2023-08-19T16:20:52.233Z,25.82
2023-08-19T16:23:22.848Z,25.72
2023-08-19T16:25:54.351Z,25.69
2023-08-19T16:28:24.953Z,25.74
2023-08-19T16:30:56.083Z,25.71
2023-08-19T16:33:26.782Z,25.63
2023-08-19T16:35:58.602Z,25.45
2023-08-19T16:38:29.325Z,25.42
2023-08-19T16:40:59.945Z,25.45
2023-08-19T16:43:30.558Z,25.49
2023-08-19T16:46:01.819Z,25.55
2023-08-19T16:48:30.861Z,25.62
2023-08-19T16:51:01.398Z,25.67
2023-08-19T16:53:32.011Z,25.61
2023-08-19T16:56:05.404Z,25.56
2023-08-19T16:58:35.948Z,25.59
2023-08-19T17:01:09.232Z,25.59
2023-08-19T17:03:40.420Z,25.57
2023-08-19T17:06:10.957Z,25.54
2023-08-19T17:08:41.546Z,25.51
2023-08-19T17:11:12.522Z,25.52
2023-08-19T17:13:43.019Z,25.55
2023-08-19T17:16:13.704Z,25.56
2023-08-19T17:18:44.329Z,25.52
2023-08-19T17:21:14.874Z,25.49
2023-08-19T17:23:45.401Z,25.41
2023-08-19T17:26:15.953Z,25.34
2023-08-19T17:28:46.504Z,25.32
2023-08-19T17:31:17.107Z,25.27
2023-08-19T17:33:49.337Z,25.26
2023-08-19T17:36:19.862Z,25.21
2023-08-19T17:38:50.423Z,25.15
2023-08-19T17:41:22.192Z,24.99
2023-08-19T17:43:52.753Z,24.94
2023-08-19T17:46:23.304Z,24.93
2023-08-19T17:48:53.948Z,24.94
2023-08-19T17:51:24.428Z,24.93
2023-08-19T17:53:55.026Z,24.90
2023-08-19T17:56:25.714Z,24.86
2023-08-19T17:58:56.311Z,24.82
2023-08-19T18:01:26.815Z,24.77
2023-08-19T18:03:57.324Z,24.72
2023-08-19T18:06:27.880Z,24.68
2023-08-19T18:08:58.506Z,24.70
2023-08-19T18:11:29.184Z,24.69
2023-08-19T18:13:59.905Z,24.61
2023-08-19T18:16:30.639Z,24.62
2023-08-19T18:19:01.183Z,24.65
2023-08-19T18:21:31.815Z,24.67
2023-08-19T18:24:02.494Z,24.65
2023-08-19T18:26:33.157Z,24.60
2023-08-19T18:29:03.888Z,24.49
2023-08-19T18:31:34.498Z,24.48
2023-08-19T18:34:05.405Z,24.46
2023-08-19T18:36:35.957Z,24.46
2023-08-19T18:39:07.340Z,24.43
2023-08-19T18:41:36.320Z,24.38
2023-08-19T18:44:07.250Z,24.31
2023-08-19T18:46:37.810Z,24.22
2023-08-19T18:49:08.391Z,24.14
2023-08-19T18:51:38.953Z,24.07
2023-08-19T18:54:09.796Z,24.03
2023-08-19T18:56:40.664Z,24.02
2023-08-19T18:59:12.066Z,24.02
2023-08-19T19:01:42.755Z,23.98
2023-08-19T19:04:13.412Z,23.92
2023-08-19T19:06:44.800Z,23.71
2023-08-19T19:09:15.132Z,23.68
2023-08-19T19:11:45.642Z,23.68
2023-08-19T19:14:16.328Z,23.65
2023-08-19T19:16:47.006Z,23.66
2023-08-19T19:19:17.564Z,23.67
2023-08-19T19:21:48.501Z,23.63
2023-08-19T19:24:19.163Z,23.57
2023-08-19T19:26:49.761Z,23.52
2023-08-19T19:29:21.047Z,23.46
2023-08-19T19:31:51.622Z,23.41
2023-08-19T19:34:22.470Z,23.39
2023-08-19T19:36:53.041Z,23.36
2023-08-19T19:39:23.706Z,23.32
2023-08-19T19:41:55.046Z,23.28
2023-08-19T19:44:25.627Z,23.27
2023-08-19T19:46:56.389Z,23.24
2023-08-19T19:49:27.050Z,23.19
2023-08-19T19:51:57.636Z,23.16
2023-08-19T19:54:28.159Z,23.10
2023-08-19T19:56:59.037Z,23.04
2023-08-19T19:59:29.856Z,23.01
2023-08-19T20:02:00.415Z,22.98
2023-08-19T20:04:31.112Z,22.94
2023-08-19T20:07:01.509Z,22.91
2023-08-19T20:09:32.189Z,22.89
2023-08-19T20:12:02.812Z,22.86
2023-08-19T20:14:33.614Z,22.84
2023-08-19T20:17:04.830Z,22.83
2023-08-19T20:19:35.336Z,22.82
2023-08-19T20:22:08.085Z,22.81
2023-08-19T20:24:38.694Z,22.78
2023-08-19T20:27:09.578Z,22.76
2023-08-19T20:29:40.176Z,22.72
2023-08-19T20:32:11.710Z,22.72
2023-08-19T20:34:42.228Z,22.69
2023-08-19T20:37:12.933Z,22.68
2023-08-19T20:39:43.743Z,22.68
2023-08-19T20:42:14.330Z,22.66
2023-08-19T20:44:44.914Z,22.68
2023-08-19T20:47:15.722Z,22.67
2023-08-19T20:49:46.310Z,22.66
2023-08-19T20:52:16.996Z,22.69
2023-08-19T20:54:47.566Z,22.71
2023-08-19T20:57:19.302Z,22.68
2023-08-19T20:59:49.863Z,22.66
2023-08-19T21:02:20.410Z,22.64
2023-08-19T21:04:51.026Z,22.62
2023-08-19T21:07:21.603Z,22.59
2023-08-19T21:09:52.423Z,22.56
2023-08-19T21:12:23.006Z,22.55
2023-08-19T21:14:53.735Z,22.54
2023-08-19T21:17:24.290Z,22.54
2023-08-19T21:19:54.930Z,22.48
2023-08-19T21:22:25.597Z,22.43
2023-08-19T21:24:56.223Z,22.38
2023-08-19T21:27:27.480Z,22.33
2023-08-19T21:29:58.007Z,22.31
2023-08-19T21:32:29.590Z,22.25
2023-08-19T21:35:00.429Z,22.22
2023-08-19T21:37:30.979Z,22.20
2023-08-19T21:40:01.597Z,22.18
2023-08-19T21:42:32.136Z,22.18
2023-08-19T21:45:02.639Z,22.12
2023-08-19T21:47:33.527Z,22.08
2023-08-19T21:50:04.759Z,22.03
2023-08-19T21:52:35.291Z,21.99
2023-08-19T21:55:06.981Z,21.97
2023-08-19T21:57:37.717Z,21.95
2023-08-19T22:00:14.140Z,21.94
2023-08-19T22:02:44.755Z,21.95
2023-08-19T22:05:15.464Z,21.95
2023-08-19T22:07:46.030Z,21.93
2023-08-19T22:10:16.797Z,21.91
2023-08-19T22:12:47.457Z,21.89
2023-08-19T22:15:18.187Z,21.87
2023-08-19T22:17:48.782Z,21.77
2023-08-19T22:20:19.587Z,21.73
2023-08-19T22:22:50.076Z,21.71
2023-08-19T22:25:20.785Z,21.68
2023-08-19T22:27:51.648Z,21.64
2023-08-19T22:30:22.298Z,21.58
2023-08-19T22:32:52.956Z,21.55
2023-08-19T22:35:23.983Z,21.54
2023-08-19T22:37:54.667Z,21.54
2023-08-19T22:40:25.171Z,21.52
2023-08-19T22:42:55.913Z,21.49
2023-08-19T22:45:26.478Z,21.46
2023-08-19T22:47:57.054Z,21.41
2023-08-19T22:50:27.840Z,21.34
2023-08-19T22:52:58.394Z,21.32
2023-08-19T22:55:29.001Z,21.31
2023-08-19T22:57:59.621Z,21.29
2023-08-19T23:00:30.358Z,21.30
2023-08-19T23:03:00.970Z,21.28
2023-08-19T23:05:31.564Z,21.25
2023-08-19T23:08:02.145Z,21.19
2023-08-19T23:10:32.687Z,21.14
2023-08-19T23:13:03.277Z,21.10
2023-08-19T23:15:33.929Z,21.10
2023-08-19T23:18:04.744Z,21.10
2023-08-19T23:20:35.569Z,21.11
2023-08-19T23:23:06.398Z,21.10
2023-08-19T23:25:37.083Z,21.05
2023-08-19T23:28:08.780Z,21.02
2023-08-19T23:30:39.491Z,20.99
2023-08-19T23:33:10.136Z,20.95
2023-08-19T23:35:41.567Z,20.93
2023-08-19T23:38:12.231Z,20.92
2023-08-19T23:40:42.899Z,20.91
2023-08-19T23:43:13.487Z,20.85
2023-08-19T23:45:44.890Z,20.66
2023-08-19T23:48:16.745Z,20.61
2023-08-19T23:50:51.262Z,20.67
2023-08-19T23:53:24.597Z,20.66
2023-08-19T23:55:56.333Z,20.65
2023-08-19T23:58:27.894Z,20.63
